sensor_id;sensor_type;location;lat;lon;timestamp;P1;durP1;ratioP1;P2;durP2;ratioP2
18499;SDS011;9379;52.134;11.576;2023-11-21T00:01:06;5.25;;;3.67;;
18499;SDS011;9379;52.134;11.576;2023-11-21T00:03:34;11.45;;;4.13;;
18499;SDS011;9379;52.134;11.576;2023-11-21T00:06:01;3.80;;;2.60;;
18499;SDS011;9379;52.134;11.576;2023-11-21T00:08:28;4.88;;;3.33;;
18499;SDS011;9379;52.134;11.576;2023-11-21T00:10:55;12.15;;;3.63;;
18499;SDS011;9379;52.134;11.576;2023-11-21T00:13:22;3.80;;;3.40;;
18499;SDS011;9379;52.134;11.576;2023-11-21T00:15:50;11.38;;;3.95;;
18499;SDS011;9379;52.134;11.576;2023-11-21T00:18:16;7.15;;;4.25;;
18499;SDS011;9379;52.134;11.576;2023-11-21T00:20:43;3.55;;;3.03;;
18499;SDS011;9379;52.134;11.576;2023-11-21T00:23:10;5.50;;;3.60;;
18499;SDS011;9379;52.134;11.576;2023-11-21T00:25:37;4.10;;;3.03;;
18499;SDS011;9379;52.134;11.576;2023-11-21T00:28:04;4.22;;;3.35;;
18499;SDS011;9379;52.134;11.576;2023-11-21T00:30:31;4.28;;;2.85;;
18499;SDS011;9379;52.134;11.576;2023-11-21T00:32:59;3.25;;;3.05;;
18499;SDS011;9379;52.134;11.576;2023-11-21T00:35:26;3.50;;;3.20;;
18499;SDS011;9379;52.134;11.576;2023-11-21T00:37:53;6.38;;;3.53;;
18499;SDS011;9379;52.134;11.576;2023-11-21T00:40:20;8.55;;;3.58;;
18499;SDS011;9379;52.134;11.576;2023-11-21T00:42:47;4.53;;;3.42;;
18499;SDS011;9379;52.134;11.576;2023-11-21T00:45:14;6.32;;;3.90;;
18499;SDS011;9379;52.134;11.576;2023-11-21T00:47:41;5.10;;;4.10;;
18499;SDS011;9379;52.134;11.576;2023-11-21T00:50:10;4.03;;;3.17;;
18499;SDS011;9379;52.134;11.576;2023-11-21T00:52:37;5.10;;;4.25;;
18499;SDS011;9379;52.134;11.576;2023-11-21T00:55:04;5.38;;;3.70;;
18499;SDS011;9379;52.134;11.576;2023-11-21T00:57:32;9.35;;;3.67;;
18499;SDS011;9379;52.134;11.576;2023-11-21T00:59:59;4.80;;;4.25;;
18499;SDS011;9379;52.134;11.576;2023-11-21T01:02:26;3.53;;;3.13;;
18499;SDS011;9379;52.134;11.576;2023-11-21T01:04:54;4.55;;;3.53;;
18499;SDS011;9379;52.134;11.576;2023-11-21T01:07:22;2.50;;;2.28;;
18499;SDS011;9379;52.134;11.576;2023-11-21T01:09:49;2.90;;;2.70;;
18499;SDS011;9379;52.134;11.576;2023-11-21T01:12:16;3.20;;;2.88;;
18499;SDS011;9379;52.134;11.576;2023-11-21T01:14:44;5.60;;;3.30;;
18499;SDS011;9379;52.134;11.576;2023-11-21T01:17:11;4.45;;;4.05;;
18499;SDS011;9379;52.134;11.576;2023-11-21T01:19:38;4.57;;;4.07;;
18499;SDS011;9379;52.134;11.576;2023-11-21T01:22:05;6.68;;;3.03;;
18499;SDS011;9379;52.134;11.576;2023-11-21T01:24:33;3.88;;;3.17;;
18499;SDS011;9379;52.134;11.576;2023-11-21T01:27:00;7.13;;;4.53;;
18499;SDS011;9379;52.134;11.576;2023-11-21T01:29:27;6.82;;;3.67;;
18499;SDS011;9379;52.134;11.576;2023-11-21T01:31:54;5.82;;;4.03;;
18499;SDS011;9379;52.134;11.576;2023-11-21T01:34:22;3.67;;;2.95;;
18499;SDS011;9379;52.134;11.576;2023-11-21T01:36:50;4.55;;;3.15;;
18499;SDS011;9379;52.134;11.576;2023-11-21T01:39:17;4.45;;;3.97;;
18499;SDS011;9379;52.134;11.576;2023-11-21T01:41:50;8.82;;;5.07;;
18499;SDS011;9379;52.134;11.576;2023-11-21T01:44:17;2.38;;;2.17;;
18499;SDS011;9379;52.134;11.576;2023-11-21T01:46:44;6.90;;;3.88;;
18499;SDS011;9379;52.134;11.576;2023-11-21T01:49:12;9.23;;;5.18;;
18499;SDS011;9379;52.134;11.576;2023-11-21T01:51:40;5.63;;;3.33;;
18499;SDS011;9379;52.134;11.576;2023-11-21T01:54:08;4.25;;;3.85;;
18499;SDS011;9379;52.134;11.576;2023-11-21T01:56:36;6.82;;;3.35;;
18499;SDS011;9379;52.134;11.576;2023-11-21T01:59:05;4.25;;;3.80;;
18499;SDS011;9379;52.134;11.576;2023-11-21T02:01:33;8.32;;;4.68;;
18499;SDS011;9379;52.134;11.576;2023-11-21T02:04:00;8.13;;;5.45;;
18499;SDS011;9379;52.134;11.576;2023-11-21T02:06:27;4.82;;;3.53;;
18499;SDS011;9379;52.134;11.576;2023-11-21T02:08:57;5.47;;;3.25;;
18499;SDS011;9379;52.134;11.576;2023-11-21T02:11:24;6.15;;;3.65;;
18499;SDS011;9379;52.134;11.576;2023-11-21T02:13:52;4.72;;;3.70;;
18499;SDS011;9379;52.134;11.576;2023-11-21T02:16:21;4.90;;;4.47;;
18499;SDS011;9379;52.134;11.576;2023-11-21T02:18:48;4.68;;;4.20;;
18499;SDS011;9379;52.134;11.576;2023-11-21T02:21:15;5.40;;;4.72;;
18499;SDS011;9379;52.134;11.576;2023-11-21T02:23:45;4.00;;;3.60;;
18499;SDS011;9379;52.134;11.576;2023-11-21T02:26:12;5.82;;;4.55;;
18499;SDS011;9379;52.134;11.576;2023-11-21T02:28:39;6.60;;;3.88;;
18499;SDS011;9379;52.134;11.576;2023-11-21T02:31:07;3.75;;;3.28;;
18499;SDS011;9379;52.134;11.576;2023-11-21T02:33:34;6.35;;;3.95;;
18499;SDS011;9379;52.134;11.576;2023-11-21T02:36:01;4.25;;;3.35;;
18499;SDS011;9379;52.134;11.576;2023-11-21T02:38:29;4.10;;;3.70;;
18499;SDS011;9379;52.134;11.576;2023-11-21T02:40:58;4.18;;;3.78;;
18499;SDS011;9379;52.134;11.576;2023-11-21T02:43:25;6.03;;;4.32;;
18499;SDS011;9379;52.134;11.576;2023-11-21T02:45:52;3.63;;;3.33;;
18499;SDS011;9379;52.134;11.576;2023-11-21T02:48:19;4.00;;;3.58;;
18499;SDS011;9379;52.134;11.576;2023-11-21T02:50:49;6.10;;;4.78;;
18499;SDS011;9379;52.134;11.576;2023-11-21T02:53:16;10.00;;;5.22;;
18499;SDS011;9379;52.134;11.576;2023-11-21T02:55:43;8.60;;;4.90;;
18499;SDS011;9379;52.134;11.576;2023-11-21T02:58:11;7.30;;;3.65;;
18499;SDS011;9379;52.134;11.576;2023-11-21T03:00:38;6.60;;;3.83;;
18499;SDS011;9379;52.134;11.576;2023-11-21T03:03:06;4.25;;;3.85;;
18499;SDS011;9379;52.134;11.576;2023-11-21T03:05:33;4.38;;;3.83;;
18499;SDS011;9379;52.134;11.576;2023-11-21T03:08:02;12.38;;;5.97;;
18499;SDS011;9379;52.134;11.576;2023-11-21T03:10:29;5.70;;;4.55;;
18499;SDS011;9379;52.134;11.576;2023-11-21T03:12:56;6.07;;;5.35;;
18499;SDS011;9379;52.134;11.576;2023-11-21T03:15:24;7.55;;;4.25;;
18499;SDS011;9379;52.134;11.576;2023-11-21T03:17:52;4.53;;;4.15;;
18499;SDS011;9379;52.134;11.576;2023-11-21T03:20:18;4.32;;;3.50;;
18499;SDS011;9379;52.134;11.576;2023-11-21T03:22:45;6.20;;;4.00;;
18499;SDS011;9379;52.134;11.576;2023-11-21T03:25:12;6.93;;;4.70;;
18499;SDS011;9379;52.134;11.576;2023-11-21T03:27:39;5.35;;;4.88;;
18499;SDS011;9379;52.134;11.576;2023-11-21T03:30:07;9.68;;;4.57;;
18499;SDS011;9379;52.134;11.576;2023-11-21T03:32:37;5.88;;;4.65;;
18499;SDS011;9379;52.134;11.576;2023-11-21T03:35:04;4.32;;;3.80;;
18499;SDS011;9379;52.134;11.576;2023-11-21T03:37:32;8.43;;;3.97;;
18499;SDS011;9379;52.134;11.576;2023-11-21T03:39:59;5.07;;;4.57;;
18499;SDS011;9379;52.134;11.576;2023-11-21T03:42:26;5.70;;;4.07;;
18499;SDS011;9379;52.134;11.576;2023-11-21T03:44:52;5.60;;;5.00;;
18499;SDS011;9379;52.134;11.576;2023-11-21T03:47:19;5.00;;;3.95;;
18499;SDS011;9379;52.134;11.576;2023-11-21T03:49:48;10.57;;;4.03;;
18499;SDS011;9379;52.134;11.576;2023-11-21T03:52:14;6.97;;;5.43;;
18499;SDS011;9379;52.134;11.576;2023-11-21T03:54:41;5.70;;;4.60;;
18499;SDS011;9379;52.134;11.576;2023-11-21T03:57:09;7.55;;;4.78;;
18499;SDS011;9379;52.134;11.576;2023-11-21T03:59:36;8.30;;;4.05;;
18499;SDS011;9379;52.134;11.576;2023-11-21T04:02:06;9.10;;;5.22;;
18499;SDS011;9379;52.134;11.576;2023-11-21T04:04:32;4.70;;;4.28;;
18499;SDS011;9379;52.134;11.576;2023-11-21T04:07:01;6.30;;;4.70;;
18499;SDS011;9379;52.134;11.576;2023-11-21T04:09:28;4.88;;;4.35;;
18499;SDS011;9379;52.134;11.576;2023-11-21T04:11:55;5.22;;;4.47;;
18499;SDS011;9379;52.134;11.576;2023-11-21T04:14:22;5.43;;;4.35;;
18499;SDS011;9379;52.134;11.576;2023-11-21T04:16:49;10.85;;;4.55;;
18499;SDS011;9379;52.134;11.576;2023-11-21T04:19:15;6.03;;;4.15;;
18499;SDS011;9379;52.134;11.576;2023-11-21T04:21:43;6.18;;;4.05;;
18499;SDS011;9379;52.134;11.576;2023-11-21T04:24:11;4.43;;;3.45;;
18499;SDS011;9379;52.134;11.576;2023-11-21T04:26:38;7.30;;;5.18;;
18499;SDS011;9379;52.134;11.576;2023-11-21T04:29:05;3.75;;;3.45;;
18499;SDS011;9379;52.134;11.576;2023-11-21T04:31:31;5.82;;;3.90;;
18499;SDS011;9379;52.134;11.576;2023-11-21T04:33:58;2.83;;;2.63;;
18499;SDS011;9379;52.134;11.576;2023-11-21T04:36:25;2.95;;;2.33;;
18499;SDS011;9379;52.134;11.576;2023-11-21T04:38:52;2.05;;;1.95;;
18499;SDS011;9379;52.134;11.576;2023-11-21T04:41:20;3.45;;;2.75;;
18499;SDS011;9379;52.134;11.576;2023-11-21T04:43:47;2.35;;;2.17;;
18499;SDS011;9379;52.134;11.576;2023-11-21T04:46:14;2.40;;;2.20;;
18499;SDS011;9379;52.134;11.576;2023-11-21T04:48:41;2.63;;;2.42;;
18499;SDS011;9379;52.134;11.576;2023-11-21T04:51:08;2.25;;;1.77;;
18499;SDS011;9379;52.134;11.576;2023-11-21T04:53:36;1.60;;;1.50;;
18499;SDS011;9379;52.134;11.576;2023-11-21T04:56:04;2.90;;;2.25;;
18499;SDS011;9379;52.134;11.576;2023-11-21T04:58:33;3.80;;;3.22;;
18499;SDS011;9379;52.134;11.576;2023-11-21T05:01:01;2.03;;;1.83;;
18499;SDS011;9379;52.134;11.576;2023-11-21T05:03:28;2.03;;;1.83;;
18499;SDS011;9379;52.134;11.576;2023-11-21T05:05:55;2.53;;;2.33;;
18499;SDS011;9379;52.134;11.576;2023-11-21T05:08:22;2.83;;;2.00;;
18499;SDS011;9379;52.134;11.576;2023-11-21T05:10:49;2.17;;;1.98;;
18499;SDS011;9379;52.134;11.576;2023-11-21T05:13:16;2.75;;;2.38;;
18499;SDS011;9379;52.134;11.576;2023-11-21T05:15:45;3.17;;;2.75;;
18499;SDS011;9379;52.134;11.576;2023-11-21T05:18:12;2.83;;;2.63;;
18499;SDS011;9379;52.134;11.576;2023-11-21T05:20:39;2.92;;;2.72;;
18499;SDS011;9379;52.134;11.576;2023-11-21T05:23:06;4.40;;;3.42;;
18499;SDS011;9379;52.134;11.576;2023-11-21T05:25:33;3.65;;;2.72;;
18499;SDS011;9379;52.134;11.576;2023-11-21T05:28:00;2.70;;;2.47;;
18499;SDS011;9379;52.134;11.576;2023-11-21T05:30:27;3.75;;;2.92;;
18499;SDS011;9379;52.134;11.576;2023-11-21T05:32:56;5.00;;;2.92;;
18499;SDS011;9379;52.134;11.576;2023-11-21T05:35:23;3.00;;;2.55;;
18499;SDS011;9379;52.134;11.576;2023-11-21T05:37:50;3.38;;;3.15;;
18499;SDS011;9379;52.134;11.576;2023-11-21T05:40:17;5.07;;;2.95;;
18499;SDS011;9379;52.134;11.576;2023-11-21T05:42:43;6.43;;;5.03;;
18499;SDS011;9379;52.134;11.576;2023-11-21T05:45:11;3.70;;;3.35;;
18499;SDS011;9379;52.134;11.576;2023-11-21T05:47:38;3.88;;;3.50;;
18499;SDS011;9379;52.134;11.576;2023-11-21T05:50:08;3.70;;;3.40;;
18499;SDS011;9379;52.134;11.576;2023-11-21T05:52:37;3.10;;;2.67;;
18499;SDS011;9379;52.134;11.576;2023-11-21T05:55:04;3.13;;;2.85;;
18499;SDS011;9379;52.134;11.576;2023-11-21T05:57:32;2.97;;;2.30;;
18499;SDS011;9379;52.134;11.576;2023-11-21T06:00:01;3.65;;;3.25;;
18499;SDS011;9379;52.134;11.576;2023-11-21T06:02:36;2.53;;;2.33;;
18499;SDS011;9379;52.134;11.576;2023-11-21T06:05:03;3.05;;;2.85;;
18499;SDS011;9379;52.134;11.576;2023-11-21T06:07:32;4.13;;;3.72;;
18499;SDS011;9379;52.134;11.576;2023-11-21T06:10:01;6.05;;;5.05;;
18499;SDS011;9379;52.134;11.576;2023-11-21T06:12:31;6.07;;;4.53;;
18499;SDS011;9379;52.134;11.576;2023-11-21T06:15:00;3.70;;;3.40;;
18499;SDS011;9379;52.134;11.576;2023-11-21T06:17:29;6.65;;;5.55;;
18499;SDS011;9379;52.134;11.576;2023-11-21T06:19:56;8.35;;;6.18;;
18499;SDS011;9379;52.134;11.576;2023-11-21T06:22:23;5.03;;;4.53;;
18499;SDS011;9379;52.134;11.576;2023-11-21T06:24:51;5.80;;;4.50;;
18499;SDS011;9379;52.134;11.576;2023-11-21T06:27:18;5.35;;;4.78;;
18499;SDS011;9379;52.134;11.576;2023-11-21T06:29:44;6.43;;;5.60;;
18499;SDS011;9379;52.134;11.576;2023-11-21T06:32:12;5.57;;;4.95;;
18499;SDS011;9379;52.134;11.576;2023-11-21T06:34:41;6.18;;;5.47;;
18499;SDS011;9379;52.134;11.576;2023-11-21T06:37:08;6.40;;;5.80;;
18499;SDS011;9379;52.134;11.576;2023-11-21T06:39:36;6.97;;;6.30;;
18499;SDS011;9379;52.134;11.576;2023-11-21T06:42:05;7.18;;;5.70;;
18499;SDS011;9379;52.134;11.576;2023-11-21T06:44:32;7.00;;;6.28;;
18499;SDS011;9379;52.134;11.576;2023-11-21T06:47:00;9.77;;;6.45;;
18499;SDS011;9379;52.134;11.576;2023-11-21T06:49:27;7.38;;;6.22;;
18499;SDS011;9379;52.134;11.576;2023-11-21T06:51:55;6.38;;;5.35;;
18499;SDS011;9379;52.134;11.576;2023-11-21T06:54:22;8.35;;;7.50;;
18499;SDS011;9379;52.134;11.576;2023-11-21T06:56:49;8.02;;;7.22;;
18499;SDS011;9379;52.134;11.576;2023-11-21T06:59:19;8.43;;;7.25;;
18499;SDS011;9379;52.134;11.576;2023-11-21T07:01:46;10.30;;;7.13;;
18499;SDS011;9379;52.134;11.576;2023-11-21T07:04:14;6.55;;;6.00;;
18499;SDS011;9379;52.134;11.576;2023-11-21T07:06:41;7.22;;;5.78;;
18499;SDS011;9379;52.134;11.576;2023-11-21T07:09:08;9.85;;;8.15;;
18499;SDS011;9379;52.134;11.576;2023-11-21T07:11:36;6.78;;;5.05;;
18499;SDS011;9379;52.134;11.576;2023-11-21T07:14:04;4.70;;;4.25;;
18499;SDS011;9379;52.134;11.576;2023-11-21T07:16:34;5.05;;;4.65;;
18499;SDS011;9379;52.134;11.576;2023-11-21T07:19:02;7.47;;;6.25;;
18499;SDS011;9379;52.134;11.576;2023-11-21T07:21:31;6.82;;;4.88;;
18499;SDS011;9379;52.134;11.576;2023-11-21T07:23:58;6.43;;;5.80;;
18499;SDS011;9379;52.134;11.576;2023-11-21T07:26:26;6.82;;;6.18;;
18499;SDS011;9379;52.134;11.576;2023-11-21T07:28:53;14.55;;;6.55;;
18499;SDS011;9379;52.134;11.576;2023-11-21T07:31:20;7.45;;;6.32;;
18499;SDS011;9379;52.134;11.576;2023-11-21T07:33:49;11.82;;;8.15;;
18499;SDS011;9379;52.134;11.576;2023-11-21T07:36:16;9.13;;;6.70;;
18499;SDS011;9379;52.134;11.576;2023-11-21T07:38:44;6.65;;;5.95;;
18499;SDS011;9379;52.134;11.576;2023-11-21T07:41:11;8.45;;;6.75;;
18499;SDS011;9379;52.134;11.576;2023-11-21T07:43:40;8.68;;;5.85;;
18499;SDS011;9379;52.134;11.576;2023-11-21T07:46:07;6.93;;;5.38;;
18499;SDS011;9379;52.134;11.576;2023-11-21T07:48:34;10.20;;;6.00;;
18499;SDS011;9379;52.134;11.576;2023-11-21T07:51:03;8.43;;;5.90;;
18499;SDS011;9379;52.134;11.576;2023-11-21T07:53:30;9.35;;;6.75;;
18499;SDS011;9379;52.134;11.576;2023-11-21T07:55:57;11.38;;;6.70;;
18499;SDS011;9379;52.134;11.576;2023-11-21T07:58:24;6.50;;;5.90;;
18499;SDS011;9379;52.134;11.576;2023-11-21T08:00:51;6.80;;;6.07;;
18499;SDS011;9379;52.134;11.576;2023-11-21T08:03:18;6.03;;;5.43;;
18499;SDS011;9379;52.134;11.576;2023-11-21T08:05:46;6.50;;;5.63;;
18499;SDS011;9379;52.134;11.576;2023-11-21T08:08:14;7.47;;;6.57;;
18499;SDS011;9379;52.134;11.576;2023-11-21T08:10:43;5.65;;;4.80;;
18499;SDS011;9379;52.134;11.576;2023-11-21T08:13:13;8.32;;;5.82;;
18499;SDS011;9379;52.134;11.576;2023-11-21T08:15:42;12.60;;;8.27;;
18499;SDS011;9379;52.134;11.576;2023-11-21T08:18:11;7.55;;;6.18;;
18499;SDS011;9379;52.134;11.576;2023-11-21T08:20:38;9.40;;;7.18;;
18499;SDS011;9379;52.134;11.576;2023-11-21T08:23:05;7.68;;;5.13;;
18499;SDS011;9379;52.134;11.576;2023-11-21T08:25:33;6.07;;;5.47;;
18499;SDS011;9379;52.134;11.576;2023-11-21T08:28:00;9.52;;;6.05;;
18499;SDS011;9379;52.134;11.576;2023-11-21T08:30:27;7.20;;;5.88;;
18499;SDS011;9379;52.134;11.576;2023-11-21T08:32:55;10.82;;;6.90;;
18499;SDS011;9379;52.134;11.576;2023-11-21T08:35:23;6.78;;;6.00;;
18499;SDS011;9379;52.134;11.576;2023-11-21T08:37:51;7.43;;;6.72;;
18499;SDS011;9379;52.134;11.576;2023-11-21T08:40:18;6.70;;;6.10;;
18499;SDS011;9379;52.134;11.576;2023-11-21T08:42:47;6.40;;;5.47;;
18499;SDS011;9379;52.134;11.576;2023-11-21T08:45:16;6.47;;;5.03;;
18499;SDS011;9379;52.134;11.576;2023-11-21T08:47:43;6.57;;;5.97;;
18499;SDS011;9379;52.134;11.576;2023-11-21T08:50:11;5.22;;;4.80;;
18499;SDS011;9379;52.134;11.576;2023-11-21T08:52:38;6.53;;;5.22;;
18499;SDS011;9379;52.134;11.576;2023-11-21T08:55:06;8.45;;;5.95;;
18499;SDS011;9379;52.134;11.576;2023-11-21T08:57:33;4.88;;;4.45;;
18499;SDS011;9379;52.134;11.576;2023-11-21T09:00:03;4.18;;;3.78;;
18499;SDS011;9379;52.134;11.576;2023-11-21T09:02:33;4.65;;;3.85;;
18499;SDS011;9379;52.134;11.576;2023-11-21T09:05:00;16.13;;;5.60;;
18499;SDS011;9379;52.134;11.576;2023-11-21T09:07:28;5.63;;;5.05;;
18499;SDS011;9379;52.134;11.576;2023-11-21T09:09:55;5.00;;;4.22;;
18499;SDS011;9379;52.134;11.576;2023-11-21T09:12:22;6.22;;;4.82;;
18499;SDS011;9379;52.134;11.576;2023-11-21T09:14:51;4.85;;;4.15;;
18499;SDS011;9379;52.134;11.576;2023-11-21T09:17:19;5.38;;;4.88;;
18499;SDS011;9379;52.134;11.576;2023-11-21T09:19:46;7.47;;;4.10;;
18499;SDS011;9379;52.134;11.576;2023-11-21T09:22:16;7.25;;;4.72;;
18499;SDS011;9379;52.134;11.576;2023-11-21T09:24:43;4.47;;;4.15;;
18499;SDS011;9379;52.134;11.576;2023-11-21T09:27:10;5.47;;;4.10;;
18499;SDS011;9379;52.134;11.576;2023-11-21T09:29:37;5.13;;;4.20;;
18499;SDS011;9379;52.134;11.576;2023-11-21T09:32:05;4.97;;;4.53;;
18499;SDS011;9379;52.134;11.576;2023-11-21T09:34:34;7.30;;;5.38;;
18499;SDS011;9379;52.134;11.576;2023-11-21T09:37:03;6.47;;;5.60;;
18499;SDS011;9379;52.134;11.576;2023-11-21T09:39:31;5.25;;;4.72;;
18499;SDS011;9379;52.134;11.576;2023-11-21T09:42:00;7.07;;;5.85;;
18499;SDS011;9379;52.134;11.576;2023-11-21T09:44:36;5.13;;;4.63;;
18499;SDS011;9379;52.134;11.576;2023-11-21T09:47:14;4.43;;;4.03;;
18499;SDS011;9379;52.134;11.576;2023-11-21T09:49:43;5.20;;;4.00;;
18499;SDS011;9379;52.134;11.576;2023-11-21T09:52:16;9.18;;;5.10;;
18499;SDS011;9379;52.134;11.576;2023-11-21T09:54:50;4.63;;;4.10;;
18499;SDS011;9379;52.134;11.576;2023-11-21T09:57:19;5.82;;;4.18;;
18499;SDS011;9379;52.134;11.576;2023-11-21T09:59:48;4.85;;;4.25;;
18499;SDS011;9379;52.134;11.576;2023-11-21T10:02:20;6.07;;;4.75;;
18499;SDS011;9379;52.134;11.576;2023-11-21T10:04:52;5.28;;;4.78;;
18499;SDS011;9379;52.134;11.576;2023-11-21T10:07:20;4.40;;;4.00;;
18499;SDS011;9379;52.134;11.576;2023-11-21T10:09:47;5.85;;;5.20;;
18499;SDS011;9379;52.134;11.576;2023-11-21T10:12:16;5.68;;;4.40;;
18499;SDS011;9379;52.134;11.576;2023-11-21T10:14:43;4.28;;;3.88;;
18499;SDS011;9379;52.134;11.576;2023-11-21T10:17:14;5.47;;;4.60;;
18499;SDS011;9379;52.134;11.576;2023-11-21T10:19:45;6.03;;;5.10;;
18499;SDS011;9379;52.134;11.576;2023-11-21T10:22:15;4.75;;;4.03;;
18499;SDS011;9379;52.134;11.576;2023-11-21T10:24:42;4.70;;;4.30;;
18499;SDS011;9379;52.134;11.576;2023-11-21T10:27:09;4.90;;;4.45;;
18499;SDS011;9379;52.134;11.576;2023-11-21T10:29:36;4.38;;;4.05;;
18499;SDS011;9379;52.134;11.576;2023-11-21T10:32:04;5.28;;;4.20;;
18499;SDS011;9379;52.134;11.576;2023-11-21T10:34:31;3.85;;;3.55;;
18499;SDS011;9379;52.134;11.576;2023-11-21T10:37:00;3.65;;;3.28;;
18499;SDS011;9379;52.134;11.576;2023-11-21T10:39:39;7.32;;;5.68;;
18499;SDS011;9379;52.134;11.576;2023-11-21T10:42:08;5.82;;;5.10;;
18499;SDS011;9379;52.134;11.576;2023-11-21T10:44:35;7.07;;;4.95;;
18499;SDS011;9379;52.134;11.576;2023-11-21T10:47:03;6.15;;;4.93;;
18499;SDS011;9379;52.134;11.576;2023-11-21T10:49:30;5.13;;;4.45;;
18499;SDS011;9379;52.134;11.576;2023-11-21T10:51:57;6.45;;;4.68;;
18499;SDS011;9379;52.134;11.576;2023-11-21T10:54:24;4.18;;;3.78;;
18499;SDS011;9379;52.134;11.576;2023-11-21T10:56:56;4.93;;;3.90;;
18499;SDS011;9379;52.134;11.576;2023-11-21T10:59:24;8.35;;;4.47;;
18499;SDS011;9379;52.134;11.576;2023-11-21T11:01:54;4.95;;;4.53;;
18499;SDS011;9379;52.134;11.576;2023-11-21T11:04:26;5.70;;;4.57;;
18499;SDS011;9379;52.134;11.576;2023-11-21T11:06:54;4.78;;;3.72;;
18499;SDS011;9379;52.134;11.576;2023-11-21T11:09:23;7.07;;;5.68;;
18499;SDS011;9379;52.134;11.576;2023-11-21T11:11:50;7.22;;;5.70;;
18499;SDS011;9379;52.134;11.576;2023-11-21T11:14:19;7.13;;;5.20;;
18499;SDS011;9379;52.134;11.576;2023-11-21T11:16:50;9.32;;;6.03;;
18499;SDS011;9379;52.134;11.576;2023-11-21T11:19:20;4.68;;;4.28;;
18499;SDS011;9379;52.134;11.576;2023-11-21T11:21:50;5.30;;;4.80;;
18499;SDS011;9379;52.134;11.576;2023-11-21T11:27:15;5.22;;;4.35;;
18499;SDS011;9379;52.134;11.576;2023-11-21T11:29:56;5.43;;;4.88;;
18499;SDS011;9379;52.134;11.576;2023-11-21T11:32:34;5.60;;;4.95;;
18499;SDS011;9379;52.134;11.576;2023-11-21T11:35:10;4.10;;;3.72;;
18499;SDS011;9379;52.134;11.576;2023-11-21T11:37:43;5.68;;;4.55;;
18499;SDS011;9379;52.134;11.576;2023-11-21T11:40:10;4.72;;;4.13;;
18499;SDS011;9379;52.134;11.576;2023-11-21T11:42:38;9.45;;;4.40;;
18499;SDS011;9379;52.134;11.576;2023-11-21T11:45:18;4.75;;;4.35;;
18499;SDS011;9379;52.134;11.576;2023-11-21T11:47:45;4.95;;;4.45;;
18499;SDS011;9379;52.134;11.576;2023-11-21T11:50:14;3.88;;;3.55;;
18499;SDS011;9379;52.134;11.576;2023-11-21T11:52:43;5.53;;;4.57;;
18499;SDS011;9379;52.134;11.576;2023-11-21T11:55:11;5.40;;;4.90;;
18499;SDS011;9379;52.134;11.576;2023-11-21T11:57:39;6.20;;;5.22;;
18499;SDS011;9379;52.134;11.576;2023-11-21T12:00:08;5.43;;;4.93;;
18499;SDS011;9379;52.134;11.576;2023-11-21T12:02:43;6.22;;;4.60;;
18499;SDS011;9379;52.134;11.576;2023-11-21T12:05:11;8.35;;;5.75;;
18499;SDS011;9379;52.134;11.576;2023-11-21T12:07:43;5.70;;;4.65;;
18499;SDS011;9379;52.134;11.576;2023-11-21T12:10:11;5.15;;;4.75;;
18499;SDS011;9379;52.134;11.576;2023-11-21T12:12:43;5.18;;;4.65;;
18499;SDS011;9379;52.134;11.576;2023-11-21T12:15:11;7.88;;;5.95;;
18499;SDS011;9379;52.134;11.576;2023-11-21T12:17:39;8.55;;;7.65;;
18499;SDS011;9379;52.134;11.576;2023-11-21T12:20:10;5.88;;;5.22;;
18499;SDS011;9379;52.134;11.576;2023-11-21T12:22:42;5.45;;;5.03;;
18499;SDS011;9379;52.134;11.576;2023-11-21T12:25:12;4.85;;;4.40;;
18499;SDS011;9379;52.134;11.576;2023-11-21T12:27:41;5.82;;;4.38;;
18499;SDS011;9379;52.134;11.576;2023-11-21T12:30:10;6.13;;;4.90;;
18499;SDS011;9379;52.134;11.576;2023-11-21T12:32:41;4.93;;;4.40;;
18499;SDS011;9379;52.134;11.576;2023-11-21T12:35:10;5.50;;;5.00;;
18499;SDS011;9379;52.134;11.576;2023-11-21T12:37:37;3.85;;;3.55;;
18499;SDS011;9379;52.134;11.576;2023-11-21T12:40:05;4.07;;;3.72;;
18499;SDS011;9379;52.134;11.576;2023-11-21T12:42:37;4.13;;;3.65;;
18499;SDS011;9379;52.134;11.576;2023-11-21T12:45:06;4.15;;;3.78;;
18499;SDS011;9379;52.134;11.576;2023-11-21T12:47:39;7.47;;;5.03;;
18499;SDS011;9379;52.134;11.576;2023-11-21T12:50:07;5.35;;;4.78;;
18499;SDS011;9379;52.134;11.576;2023-11-21T12:52:40;5.30;;;4.38;;
18499;SDS011;9379;52.134;11.576;2023-11-21T12:55:13;5.50;;;4.45;;
18499;SDS011;9379;52.134;11.576;2023-11-21T12:57:42;3.65;;;3.30;;
18499;SDS011;9379;52.134;11.576;2023-11-21T13:00:10;3.78;;;3.45;;
18499;SDS011;9379;52.134;11.576;2023-11-21T13:02:52;3.58;;;3.25;;
18499;SDS011;9379;52.134;11.576;2023-11-21T13:05:26;3.25;;;3.05;;
18499;SDS011;9379;52.134;11.576;2023-11-21T13:07:55;5.00;;;4.60;;
18499;SDS011;9379;52.134;11.576;2023-11-21T13:10:24;6.55;;;3.55;;
18499;SDS011;9379;52.134;11.576;2023-11-21T13:12:54;4.18;;;3.78;;
18499;SDS011;9379;52.134;11.576;2023-11-21T13:15:23;2.97;;;2.72;;
18499;SDS011;9379;52.134;11.576;2023-11-21T13:17:50;2.65;;;2.45;;
18499;SDS011;9379;52.134;11.576;2023-11-21T13:20:18;3.78;;;3.42;;
18499;SDS011;9379;52.134;11.576;2023-11-21T13:22:46;3.88;;;3.47;;
18499;SDS011;9379;52.134;11.576;2023-11-21T13:25:16;3.47;;;3.17;;
18499;SDS011;9379;52.134;11.576;2023-11-21T13:27:44;3.22;;;2.92;;
18499;SDS011;9379;52.134;11.576;2023-11-21T13:30:12;9.23;;;4.10;;
18499;SDS011;9379;52.134;11.576;2023-11-21T13:32:42;3.63;;;3.33;;
18499;SDS011;9379;52.134;11.576;2023-11-21T13:35:10;6.70;;;4.63;;
18499;SDS011;9379;52.134;11.576;2023-11-21T13:37:46;4.32;;;3.63;;
18499;SDS011;9379;52.134;11.576;2023-11-21T13:40:19;5.50;;;3.80;;
18499;SDS011;9379;52.134;11.576;2023-11-21T13:42:48;3.88;;;3.58;;
18499;SDS011;9379;52.134;11.576;2023-11-21T13:45:19;3.13;;;2.15;;
18499;SDS011;9379;52.134;11.576;2023-11-21T13:47:48;3.50;;;3.20;;
18499;SDS011;9379;52.134;11.576;2023-11-21T13:50:16;2.88;;;2.67;;
18499;SDS011;9379;52.134;11.576;2023-11-21T13:52:48;3.03;;;2.83;;
18499;SDS011;9379;52.134;11.576;2023-11-21T13:55:16;2.72;;;2.53;;
18499;SDS011;9379;52.134;11.576;2023-11-21T13:57:44;5.95;;;3.35;;
18499;SDS011;9379;52.134;11.576;2023-11-21T14:00:15;3.20;;;2.97;;
18499;SDS011;9379;52.134;11.576;2023-11-21T14:03:06;4.07;;;3.70;;
18499;SDS011;9379;52.134;11.576;2023-11-21T14:05:41;3.83;;;3.03;;
18499;SDS011;9379;52.134;11.576;2023-11-21T14:08:08;3.10;;;2.80;;
18499;SDS011;9379;52.134;11.576;2023-11-21T14:10:37;4.00;;;3.65;;
18499;SDS011;9379;52.134;11.576;2023-11-21T14:13:11;3.45;;;3.22;;
18499;SDS011;9379;52.134;11.576;2023-11-21T14:15:39;3.15;;;2.95;;
18499;SDS011;9379;52.134;11.576;2023-11-21T14:18:10;4.60;;;3.88;;
18499;SDS011;9379;52.134;11.576;2023-11-21T14:20:39;4.70;;;3.92;;
18499;SDS011;9379;52.134;11.576;2023-11-21T14:23:07;3.03;;;2.83;;
18499;SDS011;9379;52.134;11.576;2023-11-21T14:25:35;3.63;;;3.33;;
18499;SDS011;9379;52.134;11.576;2023-11-21T14:28:04;4.45;;;2.75;;
18499;SDS011;9379;52.134;11.576;2023-11-21T14:30:33;3.47;;;3.20;;
18499;SDS011;9379;52.134;11.576;2023-11-21T14:33:01;3.03;;;2.83;;
18499;SDS011;9379;52.134;11.576;2023-11-21T14:35:28;3.67;;;3.38;;
18499;SDS011;9379;52.134;11.576;2023-11-21T14:37:57;5.05;;;3.38;;
18499;SDS011;9379;52.134;11.576;2023-11-21T14:40:25;3.22;;;2.92;;
18499;SDS011;9379;52.134;11.576;2023-11-21T14:42:58;3.78;;;3.47;;
18499;SDS011;9379;52.134;11.576;2023-11-21T14:45:25;3.95;;;2.78;;
18499;SDS011;9379;52.134;11.576;2023-11-21T14:47:55;3.85;;;3.45;;
18499;SDS011;9379;52.134;11.576;2023-11-21T14:50:31;4.05;;;2.95;;
18499;SDS011;9379;52.134;11.576;2023-11-21T14:53:14;4.07;;;3.08;;
18499;SDS011;9379;52.134;11.576;2023-11-21T14:55:40;7.32;;;4.35;;
18499;SDS011;9379;52.134;11.576;2023-11-21T14:58:21;3.55;;;3.25;;